createdAt,value
2018-12-03T00:00:42.523Z,997.21
2018-12-03T00:01:42.471Z,997.30
2018-12-03T00:02:42.487Z,997.27
2018-12-03T00:03:42.451Z,997.24
2018-12-03T00:04:42.439Z,997.23
2018-12-03T00:05:42.419Z,997.24
2018-12-03T00:06:42.414Z,997.27
2018-12-03T00:07:42.395Z,997.23
2018-12-03T00:08:42.411Z,997.22
2018-12-03T00:09:42.377Z,997.24
2018-12-03T00:10:42.360Z,997.30
2018-12-03T00:11:42.375Z,997.24
2018-12-03T00:12:42.363Z,997.21
2018-12-03T00:13:42.369Z,997.16
2018-12-03T00:14:42.312Z,997.21
2018-12-03T00:15:42.323Z,997.25
2018-12-03T00:16:42.296Z,997.23
2018-12-03T00:17:42.297Z,997.23
2018-12-03T00:18:42.303Z,997.26
2018-12-03T00:19:42.266Z,997.25
2018-12-03T00:20:42.259Z,997.26
2018-12-03T00:21:42.256Z,997.27
2018-12-03T00:22:42.226Z,997.25
2018-12-03T00:23:42.212Z,997.24
2018-12-03T00:24:42.238Z,997.19
2018-12-03T00:25:42.186Z,997.21
2018-12-03T00:26:42.180Z,997.17
2018-12-03T00:27:42.181Z,997.21
2018-12-03T00:28:42.162Z,997.15
2018-12-03T00:29:42.173Z,997.13
2018-12-03T00:30:42.139Z,997.09
2018-12-03T00:31:42.119Z,997.17
2018-12-03T00:32:42.113Z,997.11
2018-12-03T00:33:42.097Z,997.03
2018-12-03T00:34:42.114Z,997.10
2018-12-03T00:35:42.092Z,997.13
2018-12-03T00:36:42.077Z,997.13
2018-12-03T00:37:42.057Z,997.13
2018-12-03T00:38:42.051Z,997.15
2018-12-03T00:39:42.569Z,997.15
2018-12-03T00:40:42.025Z,997.17
2018-12-03T00:41:42.005Z,997.14
2018-12-03T00:42:41.994Z,997.10
2018-12-03T00:43:41.983Z,997.17
2018-12-03T00:44:42.002Z,997.09
2018-12-03T00:45:41.954Z,997.14
2018-12-03T00:46:41.985Z,997.14
2018-12-03T00:47:41.935Z,997.16
2018-12-03T00:48:41.921Z,997.19
2018-12-03T00:49:41.918Z,997.11
2018-12-03T00:50:41.925Z,997.13
2018-12-03T00:51:41.890Z,997.20
2018-12-03T00:52:41.877Z,997.19
2018-12-03T00:53:41.868Z,997.19
2018-12-03T00:54:41.864Z,997.19
2018-12-03T00:55:41.873Z,997.25
2018-12-03T00:56:41.852Z,997.26
2018-12-03T00:57:41.818Z,997.27
2018-12-03T00:58:41.840Z,997.22
2018-12-03T00:59:41.842Z,997.25
2018-12-03T01:00:41.785Z,997.28
2018-12-03T01:01:41.778Z,997.23
2018-12-03T01:02:41.784Z,997.23
2018-12-03T01:03:41.754Z,997.17
2018-12-03T01:04:41.748Z,997.19
2018-12-03T01:05:41.755Z,997.29
2018-12-03T01:06:41.733Z,997.28
2018-12-03T01:07:41.703Z,997.26
2018-12-03T01:08:41.698Z,997.26
2018-12-03T01:09:41.715Z,997.28
2018-12-03T01:10:41.736Z,997.31
2018-12-03T01:11:41.659Z,997.28
2018-12-03T01:12:41.655Z,997.35
2018-12-03T01:13:41.640Z,997.34
2018-12-03T01:14:41.620Z,997.40
2018-12-03T01:15:41.638Z,997.34
2018-12-03T01:16:41.615Z,997.40
2018-12-03T01:17:41.594Z,997.37
2018-12-03T01:18:41.582Z,997.35
2018-12-03T01:19:41.599Z,997.36
2018-12-03T01:20:41.592Z,997.36
2018-12-03T01:21:41.540Z,997.36
2018-12-03T01:22:41.555Z,997.32
2018-12-03T01:23:41.520Z,997.34
2018-12-03T01:24:41.502Z,997.34
2018-12-03T01:25:41.536Z,997.34
2018-12-03T01:26:41.487Z,997.38
2018-12-03T01:27:41.492Z,997.37
2018-12-03T01:28:41.463Z,997.38
2018-12-03T01:29:41.465Z,997.37
2018-12-03T01:30:41.447Z,997.40
2018-12-03T01:31:41.463Z,997.42
2018-12-03T01:32:41.412Z,997.34
2018-12-03T01:33:41.423Z,997.34
2018-12-03T01:34:41.386Z,997.36
2018-12-03T01:35:41.399Z,997.32
2018-12-03T01:36:41.404Z,997.38
2018-12-03T01:37:41.362Z,997.33
2018-12-03T01:38:41.346Z,997.29
2018-12-03T01:39:41.336Z,997.26
2018-12-03T01:40:41.330Z,997.26
2018-12-03T01:41:41.340Z,997.33
2018-12-03T01:42:41.301Z,997.33
2018-12-03T01:43:41.296Z,997.30
2018-12-03T01:44:41.278Z,997.32
2018-12-03T01:45:41.295Z,997.32
2018-12-03T01:46:41.255Z,997.30
2018-12-03T01:47:41.277Z,997.28
2018-12-03T01:48:41.227Z,997.29
2018-12-03T01:49:41.224Z,997.28
2018-12-03T01:50:41.212Z,997.31
2018-12-03T01:51:41.201Z,997.34
2018-12-03T01:52:41.221Z,997.27
2018-12-03T01:53:41.170Z,997.28
2018-12-03T01:54:41.161Z,997.29
2018-12-03T01:55:41.160Z,997.29
2018-12-03T01:56:41.141Z,997.28
2018-12-03T01:57:41.158Z,997.30
2018-12-03T01:58:41.134Z,997.31
2018-12-03T01:59:41.110Z,997.35
2018-12-03T02:00:41.091Z,997.35
2018-12-03T02:01:41.105Z,997.37
2018-12-03T02:02:41.101Z,997.33
2018-12-03T02:03:41.071Z,997.31
2018-12-03T02:04:41.066Z,997.29
2018-12-03T02:05:41.035Z,997.33
2018-12-03T02:06:41.036Z,997.31
2018-12-03T02:07:41.048Z,997.28
2018-12-03T02:08:41.013Z,997.30
2018-12-03T02:09:41.001Z,997.30
2018-12-03T02:10:40.980Z,997.29
2018-12-03T02:11:40.971Z,997.25
2018-12-03T02:12:40.995Z,997.23
2018-12-03T02:13:40.940Z,997.21
2018-12-03T02:14:40.942Z,997.19
2018-12-03T02:15:40.940Z,997.22
2018-12-03T02:16:40.906Z,997.22
2018-12-03T02:17:40.902Z,997.18
2018-12-03T02:18:40.933Z,997.27
2018-12-03T02:19:40.876Z,997.20
2018-12-03T02:20:40.871Z,997.21
2018-12-03T02:21:40.888Z,997.17
2018-12-03T02:22:40.851Z,997.15
2018-12-03T02:23:40.846Z,997.14
2018-12-03T02:24:40.813Z,997.14
2018-12-03T02:25:40.823Z,997.11
2018-12-03T02:26:40.793Z,997.13
2018-12-03T02:27:40.781Z,997.09
2018-12-03T02:28:40.800Z,997.09
2018-12-03T02:29:40.765Z,997.05
2018-12-03T02:30:40.749Z,997.06
2018-12-03T02:31:40.734Z,997.02
2018-12-03T02:32:40.732Z,997.04
2018-12-03T02:33:40.708Z,997.05
2018-12-03T02:34:40.732Z,997.06
2018-12-03T02:35:40.742Z,997.08
2018-12-03T02:36:40.688Z,997.07
2018-12-03T02:37:40.667Z,997.05
2018-12-03T02:38:40.670Z,997.10
2018-12-03T02:39:40.673Z,997.09
2018-12-03T02:40:40.628Z,997.13
2018-12-03T02:41:40.629Z,997.11
2018-12-03T02:42:40.604Z,997.09
2018-12-03T02:43:40.599Z,997.13
2018-12-03T02:44:40.621Z,997.10
2018-12-03T02:45:40.591Z,997.07
2018-12-03T02:46:40.600Z,997.05
2018-12-03T02:47:40.574Z,997.07
2018-12-03T02:48:40.531Z,997.05
2018-12-03T02:49:40.543Z,997.03
2018-12-03T02:50:40.521Z,997.08
2018-12-03T02:51:40.516Z,997.07
2018-12-03T02:52:40.511Z,997.07
2018-12-03T02:53:40.473Z,997.03
2018-12-03T02:54:40.519Z,997.04
2018-12-03T02:55:40.460Z,996.99
2018-12-03T02:56:40.456Z,996.94
2018-12-03T02:57:40.440Z,996.96
2018-12-03T02:58:40.447Z,996.98
2018-12-03T02:59:40.406Z,997.05
2018-12-03T03:00:40.416Z,997.03
2018-12-03T03:01:40.428Z,997.04
2018-12-03T03:02:40.378Z,997.07
2018-12-03T03:03:40.373Z,997.03
2018-12-03T03:04:40.402Z,997.10
2018-12-03T03:05:40.381Z,997.10
2018-12-03T03:06:40.328Z,997.09
2018-12-03T03:07:40.354Z,997.17
2018-12-03T03:08:40.311Z,997.17
2018-12-03T03:09:40.311Z,997.17
2018-12-03T03:10:40.327Z,997.12
2018-12-03T03:11:40.279Z,997.01
2018-12-03T03:12:40.260Z,997.08
2018-12-03T03:13:40.251Z,997.16
2018-12-03T03:14:40.236Z,997.23
2018-12-03T03:15:40.260Z,997.31
2018-12-03T03:16:40.227Z,997.26
2018-12-03T03:17:40.202Z,997.28
2018-12-03T03:18:40.205Z,997.23
2018-12-03T03:19:40.194Z,997.07
2018-12-03T03:20:40.226Z,997.04
2018-12-03T03:21:40.149Z,997.07
2018-12-03T03:22:40.147Z,997.14
2018-12-03T03:23:40.129Z,997.15
2018-12-03T03:24:40.122Z,997.08
2018-12-03T03:25:40.150Z,997.11
2018-12-03T03:26:40.090Z,997.04
2018-12-03T03:27:40.083Z,997.00
2018-12-03T03:28:40.099Z,996.97
2018-12-03T03:29:40.071Z,997.02
2018-12-03T03:30:40.077Z,996.99
2018-12-03T03:31:40.078Z,997.01
2018-12-03T03:32:40.136Z,997.03
2018-12-03T03:33:40.025Z,997.02
2018-12-03T03:34:40.004Z,996.99
2018-12-03T03:35:40.002Z,997.02
2018-12-03T03:36:40.009Z,997.00
2018-12-03T03:37:39.988Z,996.99
2018-12-03T03:38:39.957Z,997.01
2018-12-03T03:39:39.954Z,996.96
2018-12-03T03:40:39.936Z,996.91
2018-12-03T03:41:39.927Z,996.94
2018-12-03T03:42:39.945Z,996.97
2018-12-03T03:43:39.920Z,996.96
2018-12-03T03:44:39.890Z,996.95
2018-12-03T03:45:39.899Z,996.97
2018-12-03T03:46:39.909Z,996.92
2018-12-03T03:47:39.891Z,996.93
2018-12-03T03:48:39.857Z,996.97
2018-12-03T03:49:39.835Z,996.86
2018-12-03T03:50:39.823Z,996.82
2018-12-03T03:51:39.814Z,996.85
2018-12-03T03:52:39.834Z,996.89
2018-12-03T03:53:39.819Z,996.89
2018-12-03T03:54:39.786Z,996.88
2018-12-03T03:55:39.776Z,996.92
2018-12-03T03:56:39.748Z,996.89
2018-12-03T03:57:39.750Z,996.92
2018-12-03T03:58:39.764Z,996.92
2018-12-03T03:59:39.737Z,996.98
2018-12-03T04:00:39.719Z,996.89
2018-12-03T04:01:39.708Z,996.93
2018-12-03T04:02:39.722Z,996.95
2018-12-03T04:03:39.712Z,996.99
2018-12-03T04:04:39.665Z,996.95
2018-12-03T04:05:39.663Z,996.93
2018-12-03T04:06:39.656Z,996.96
2018-12-03T04:07:39.635Z,997.02
2018-12-03T04:08:39.648Z,997.02
2018-12-03T04:09:39.615Z,997.08
2018-12-03T04:10:39.594Z,997.12
2018-12-03T04:11:39.582Z,997.11
2018-12-03T04:12:39.596Z,997.12
2018-12-03T04:13:39.591Z,997.24
2018-12-03T04:14:39.577Z,997.18
2018-12-03T04:15:39.539Z,997.18
2018-12-03T04:16:39.547Z,997.17
2018-12-03T04:17:39.530Z,997.17
2018-12-03T04:18:39.511Z,997.23
2018-12-03T04:19:39.528Z,997.26
2018-12-03T04:20:39.484Z,997.20
2018-12-03T04:21:39.473Z,997.18
2018-12-03T04:22:39.454Z,997.17
2018-12-03T04:23:39.493Z,997.18
2018-12-03T04:24:39.464Z,997.19
2018-12-03T04:25:39.439Z,997.17
2018-12-03T04:26:39.414Z,997.14
2018-12-03T04:27:39.419Z,997.11
2018-12-03T04:28:39.394Z,997.18
2018-12-03T04:29:39.415Z,997.17
2018-12-03T04:30:39.366Z,997.12
2018-12-03T04:31:39.359Z,997.14
2018-12-03T04:32:39.348Z,997.22
2018-12-03T04:33:39.346Z,997.17
2018-12-03T04:34:39.486Z,997.24
2018-12-03T04:35:39.315Z,997.22
2018-12-03T04:36:39.302Z,997.22
2018-12-03T04:37:39.290Z,997.27
2018-12-03T04:38:39.285Z,997.25
2018-12-03T04:39:39.315Z,997.30
2018-12-03T04:40:39.262Z,997.27
2018-12-03T04:41:39.259Z,997.33
2018-12-03T04:42:39.245Z,997.33
2018-12-03T04:43:39.223Z,997.30
2018-12-03T04:44:39.247Z,997.31
2018-12-03T04:45:39.202Z,997.26
2018-12-03T04:46:39.192Z,997.25
2018-12-03T04:47:39.182Z,997.28
2018-12-03T04:48:39.176Z,997.27
2018-12-03T04:49:39.214Z,997.24
2018-12-03T04:50:39.168Z,997.26
2018-12-03T04:51:39.139Z,997.33
2018-12-03T04:52:39.137Z,997.25
2018-12-03T04:53:39.116Z,997.28
2018-12-03T04:54:39.109Z,997.18
2018-12-03T04:55:39.122Z,997.21
2018-12-03T04:56:39.103Z,997.28
2018-12-03T04:57:39.074Z,997.31
2018-12-03T04:58:39.058Z,997.25
2018-12-03T04:59:39.058Z,997.24
2018-12-03T05:00:39.091Z,997.28
2018-12-03T05:01:39.028Z,997.21
2018-12-03T05:02:39.037Z,997.21
2018-12-03T05:03:39.008Z,997.22
2018-12-03T05:04:38.991Z,997.22
2018-12-03T05:05:39.029Z,997.26
2018-12-03T05:06:38.970Z,997.21
2018-12-03T05:07:38.971Z,997.22
2018-12-03T05:08:38.952Z,997.16
2018-12-03T05:09:38.945Z,997.16
2018-12-03T05:10:38.955Z,997.25
2018-12-03T05:11:38.929Z,997.10
2018-12-03T05:12:38.933Z,997.16
2018-12-03T05:13:38.900Z,997.21
2018-12-03T05:14:38.890Z,997.22
2018-12-03T05:15:38.911Z,997.22
2018-12-03T05:16:38.894Z,997.22
2018-12-03T05:17:38.860Z,997.28
2018-12-03T05:18:38.844Z,997.26
2018-12-03T05:19:38.835Z,997.29
2018-12-03T05:20:38.810Z,997.26
2018-12-03T05:21:38.823Z,997.22
2018-12-03T05:22:38.798Z,997.24
2018-12-03T05:23:38.783Z,997.21
2018-12-03T05:24:38.789Z,997.24
2018-12-03T05:25:38.796Z,997.29
2018-12-03T05:26:38.772Z,997.30
2018-12-03T05:27:38.752Z,997.33
2018-12-03T05:28:38.731Z,997.32
2018-12-03T05:29:38.717Z,997.34
2018-12-03T05:31:39.888Z,997.35
2018-12-03T05:32:38.675Z,997.42
2018-12-03T05:33:38.669Z,997.40
2018-12-03T05:34:38.658Z,997.37
2018-12-03T05:35:38.655Z,997.34
2018-12-03T05:36:38.630Z,997.32
2018-12-03T05:37:38.679Z,997.35
2018-12-03T05:38:38.631Z,997.31
2018-12-03T05:39:38.599Z,997.35
2018-12-03T05:40:38.591Z,997.40
2018-12-03T05:41:38.606Z,997.30
2018-12-03T05:42:38.604Z,997.42
2018-12-03T05:43:38.557Z,997.40
2018-12-03T05:44:38.559Z,997.38
2018-12-03T05:45:38.539Z,997.42
2018-12-03T05:46:38.531Z,997.51
2018-12-03T05:47:38.575Z,997.46
2018-12-03T05:48:38.520Z,997.49
2018-12-03T05:49:38.491Z,997.44
2018-12-03T05:50:38.496Z,997.46
2018-12-03T05:51:38.482Z,997.45
2018-12-03T05:52:38.466Z,997.50
2018-12-03T05:53:38.481Z,997.40
2018-12-03T05:54:38.464Z,997.45
2018-12-03T05:55:38.429Z,997.47
2018-12-03T05:56:38.415Z,997.47
2018-12-03T05:57:38.412Z,997.53
2018-12-03T05:58:38.440Z,997.47
2018-12-03T05:59:38.382Z,997.52
2018-12-03T06:00:38.379Z,997.47
2018-12-03T06:01:38.392Z,997.44
2018-12-03T06:02:38.346Z,997.53
2018-12-03T06:03:38.370Z,997.51
2018-12-03T06:04:38.345Z,997.49
2018-12-03T06:05:38.322Z,997.53
2018-12-03T06:06:38.303Z,997.49
2018-12-03T06:07:38.313Z,997.48
2018-12-03T06:08:38.313Z,997.51
2018-12-03T06:09:38.284Z,997.52
2018-12-03T06:10:38.271Z,997.53
2018-12-03T06:11:38.272Z,997.57
2018-12-03T06:12:38.247Z,997.59
2018-12-03T06:13:38.250Z,997.51
2018-12-03T06:14:38.218Z,997.52
2018-12-03T06:15:38.201Z,997.51
2018-12-03T06:16:38.205Z,997.46
2018-12-03T06:17:38.177Z,997.49
2018-12-03T06:18:38.210Z,997.56
2018-12-03T06:19:38.161Z,997.52
2018-12-03T06:20:38.145Z,997.59
2018-12-03T06:21:38.178Z,997.62
2018-12-03T06:22:38.127Z,997.63
2018-12-03T06:23:38.155Z,997.67
2018-12-03T06:24:38.106Z,997.67
2018-12-03T06:25:38.105Z,997.65
2018-12-03T06:26:38.096Z,997.65
2018-12-03T06:27:38.075Z,997.62
2018-12-03T06:28:38.100Z,997.63
2018-12-03T06:29:38.093Z,997.70
2018-12-03T06:30:38.046Z,997.69
2018-12-03T06:31:38.025Z,997.69
2018-12-03T06:32:38.021Z,997.68
2018-12-03T06:33:38.047Z,997.61
2018-12-03T06:34:38.047Z,997.63
2018-12-03T06:35:38.012Z,997.65
2018-12-03T06:36:37.991Z,997.66
2018-12-03T06:38:39.113Z,997.63
2018-12-03T06:39:37.983Z,997.65
2018-12-03T06:40:37.931Z,997.69
2018-12-03T06:43:39.054Z,997.82
2018-12-03T06:45:39.068Z,997.83
2018-12-03T06:47:38.992Z,997.83
2018-12-03T06:49:40.289Z,997.86
2018-12-03T06:50:37.854Z,997.90
2018-12-03T06:51:37.809Z,997.87
2018-12-03T06:52:37.822Z,997.89
2018-12-03T06:53:37.788Z,997.85
2018-12-03T06:54:37.786Z,997.84
2018-12-03T06:55:37.799Z,997.88
2018-12-03T06:56:37.760Z,997.82
2018-12-03T06:59:38.884Z,997.91
2018-12-03T07:01:38.879Z,997.87
2018-12-03T07:02:37.693Z,997.96
2018-12-03T07:03:37.673Z,997.92
2018-12-03T07:04:37.661Z,997.96
2018-12-03T07:05:37.679Z,997.94
2018-12-03T07:09:38.777Z,997.99
2018-12-03T07:11:38.742Z,997.98
2018-12-03T07:12:37.577Z,997.93
2018-12-03T07:13:37.574Z,997.92
2018-12-03T07:14:37.557Z,997.99
2018-12-03T07:15:37.612Z,997.94
2018-12-03T07:17:38.663Z,997.99
2018-12-03T07:18:37.504Z,997.99
2018-12-03T07:19:37.498Z,997.98
2018-12-03T07:20:37.491Z,998.04
2018-12-03T07:21:37.508Z,998.01
2018-12-03T07:28:38.568Z,998.10
2018-12-03T07:29:37.391Z,998.05
2018-12-03T07:30:37.394Z,998.07
2018-12-03T07:31:37.401Z,998.09
2018-12-03T07:32:37.355Z,998.10
2018-12-03T07:33:37.343Z,998.14
2018-12-03T07:34:37.337Z,998.13
2018-12-03T07:35:37.326Z,998.23
2018-12-03T07:37:38.452Z,998.25
2018-12-03T07:38:37.318Z,998.30
2018-12-03T07:39:37.274Z,998.29
2018-12-03T07:40:37.258Z,998.26
2018-12-03T07:41:37.257Z,998.28
2018-12-03T07:42:37.273Z,998.29
2018-12-03T07:43:37.272Z,998.33
2018-12-03T07:46:38.357Z,998.31
2018-12-03T07:47:37.192Z,998.34
2018-12-03T07:52:38.374Z,998.34
2018-12-03T07:53:37.136Z,998.31
2018-12-03T07:54:37.113Z,998.27
2018-12-03T07:58:38.241Z,998.18
2018-12-03T08:00:38.511Z,998.27
2018-12-03T08:01:37.027Z,998.28
2018-12-03T08:03:38.203Z,998.27
2018-12-03T08:04:37.000Z,998.28
2018-12-03T08:06:38.156Z,998.34
2018-12-03T08:07:36.954Z,998.34
2018-12-03T08:09:38.101Z,998.26
2018-12-03T08:11:38.085Z,998.27
2018-12-03T08:12:36.904Z,998.23
2018-12-03T08:13:36.924Z,998.29
2018-12-03T08:16:39.175Z,998.23
2018-12-03T08:20:37.988Z,998.27
2018-12-03T08:21:36.805Z,998.33
2018-12-03T08:22:36.791Z,998.35
2018-12-03T08:25:37.906Z,998.37
2018-12-03T08:31:37.878Z,998.39
2018-12-03T08:32:36.685Z,998.36
2018-12-03T08:33:36.664Z,998.37
2018-12-03T08:35:37.823Z,998.29
2018-12-03T08:36:36.666Z,998.30
2018-12-03T08:38:37.796Z,998.29
2018-12-03T08:39:36.629Z,998.32
2018-12-03T08:41:37.761Z,998.36
2018-12-03T08:42:36.602Z,998.34
2018-12-03T08:43:57.568Z,998.34
2018-12-03T08:44:36.554Z,998.39
2018-12-03T08:47:37.706Z,998.39
2018-12-03T08:48:36.504Z,998.35
2018-12-03T08:49:36.526Z,998.38
2018-12-03T08:50:36.511Z,998.38
2018-12-03T08:53:37.584Z,998.42
2018-12-03T08:54:36.435Z,998.43
2018-12-03T08:55:36.459Z,998.43
2018-12-03T08:56:36.442Z,998.46
2018-12-03T08:57:36.400Z,998.37
2018-12-03T08:58:36.404Z,998.38
2018-12-03T08:59:36.433Z,998.49
2018-12-03T09:00:36.458Z,998.53
2018-12-03T09:01:36.389Z,998.53
2018-12-03T09:02:36.380Z,998.51
2018-12-03T09:06:37.468Z,998.46
2018-12-03T09:07:36.289Z,998.49
2018-12-03T09:09:37.424Z,998.52
2018-12-03T09:10:36.281Z,998.49
2018-12-03T09:11:36.282Z,998.60
2018-12-03T09:12:36.238Z,998.56
2018-12-03T09:14:37.383Z,998.55
2018-12-03T09:15:36.254Z,998.60
2018-12-03T09:16:36.228Z,998.59
2018-12-03T09:17:36.185Z,998.62
2018-12-03T09:18:36.176Z,998.56
2018-12-03T09:19:36.155Z,998.51
2018-12-03T09:20:36.147Z,998.56
2018-12-03T09:21:36.171Z,998.55
2018-12-03T09:22:36.128Z,998.54
2018-12-03T09:27:37.237Z,998.54
2018-12-03T09:28:36.064Z,998.50
2018-12-03T09:29:36.060Z,998.51
2018-12-03T09:30:36.037Z,998.49
2018-12-03T09:31:36.080Z,998.54
2018-12-03T09:32:36.011Z,998.54
2018-12-03T09:33:36.023Z,998.54
2018-12-03T09:34:35.998Z,998.55
2018-12-03T09:35:35.986Z,998.53
2018-12-03T09:36:35.970Z,998.55
2018-12-03T09:37:36.120Z,998.59
2018-12-03T09:39:37.084Z,998.59
2018-12-03T09:40:35.930Z,998.56
2018-12-03T09:41:35.951Z,998.60
2018-12-03T09:42:35.912Z,998.62
2018-12-03T09:43:35.889Z,998.60
2018-12-03T09:48:36.979Z,998.69
2018-12-03T09:49:35.835Z,998.68
2018-12-03T09:50:35.834Z,998.68
2018-12-03T09:52:37.665Z,998.61
2018-12-03T09:54:36.941Z,998.66
2018-12-03T09:55:35.771Z,998.65
2018-12-03T09:56:35.776Z,998.63
2018-12-03T10:00:36.875Z,998.61
2018-12-03T10:01:35.700Z,998.67
2018-12-03T10:02:35.719Z,998.64
2018-12-03T10:03:35.668Z,998.64
2018-12-03T10:04:35.655Z,998.62
2018-12-03T10:09:36.741Z,998.45
2018-12-03T10:10:35.586Z,998.50
2018-12-03T10:11:35.594Z,998.44
2018-12-03T10:15:36.667Z,998.49
2018-12-03T10:16:35.516Z,998.38
2018-12-03T10:19:36.655Z,998.38
2018-12-03T10:20:35.474Z,998.37
2018-12-03T10:21:35.455Z,998.37
2018-12-03T10:23:36.600Z,998.43
2018-12-03T10:26:36.558Z,998.33
2018-12-03T10:27:35.412Z,998.32
2018-12-03T10:30:36.511Z,998.27
2018-12-03T10:32:38.357Z,998.36
2018-12-03T10:35:38.322Z,998.32
2018-12-03T10:37:36.985Z,998.33
2018-12-03T10:38:35.295Z,998.37
2018-12-03T10:39:35.277Z,998.37
2018-12-03T10:41:36.384Z,998.28
2018-12-03T10:42:35.221Z,998.23
2018-12-03T10:43:35.229Z,998.20
2018-12-03T10:44:35.268Z,998.25
2018-12-03T10:45:35.219Z,998.22
2018-12-03T10:46:35.173Z,998.23
2018-12-03T10:47:35.179Z,998.21
2018-12-03T10:49:36.323Z,998.18
2018-12-03T10:50:35.160Z,998.14
2018-12-03T10:51:35.123Z,998.10
2018-12-03T10:54:37.030Z,998.12
2018-12-03T10:55:35.067Z,998.05
2018-12-03T10:56:35.066Z,998.07
2018-12-03T10:57:35.072Z,998.08
2018-12-03T10:58:35.040Z,998.12
2018-12-03T10:59:35.065Z,998.02
2018-12-03T11:00:35.021Z,998.06
2018-12-03T11:01:35.045Z,997.99
2018-12-03T11:02:35.026Z,997.99
2018-12-03T11:03:35.017Z,997.93
2018-12-03T11:05:36.556Z,997.97
2018-12-03T11:06:34.946Z,997.95
2018-12-03T11:07:34.945Z,997.95
2018-12-03T11:09:36.167Z,997.95
2018-12-03T11:10:34.951Z,997.93
2018-12-03T11:11:34.895Z,997.91
2018-12-03T11:12:34.880Z,997.91
2018-12-03T11:13:34.869Z,997.92
2018-12-03T11:14:34.888Z,997.93
2018-12-03T11:15:34.843Z,998.00
2018-12-03T11:16:34.855Z,997.99
2018-12-03T11:17:34.826Z,998.04
2018-12-03T11:18:34.839Z,998.04
2018-12-03T11:19:34.808Z,998.00
2018-12-03T11:24:49.162Z,997.99
2018-12-03T11:25:49.090Z,997.98
2018-12-03T11:26:49.059Z,998.04
2018-12-03T11:27:49.036Z,998.00
2018-12-03T11:28:49.026Z,998.03
2018-12-03T11:29:49.020Z,997.99
2018-12-03T11:30:49.041Z,997.99
2018-12-03T11:32:50.125Z,998.00
2018-12-03T11:33:48.965Z,998.04
2018-12-03T11:34:48.963Z,998.02
2018-12-03T11:35:48.943Z,998.07
2018-12-03T11:36:48.986Z,997.99
2018-12-03T11:37:48.921Z,998.05
2018-12-03T11:38:48.934Z,997.99
2018-12-03T11:39:48.904Z,998.04
2018-12-03T11:40:48.893Z,998.01
2018-12-03T11:41:48.907Z,997.96
2018-12-03T11:42:48.874Z,997.92
2018-12-03T11:43:48.865Z,997.92
2018-12-03T11:44:48.844Z,997.89
2018-12-03T11:45:48.845Z,997.92
2018-12-03T11:46:48.852Z,997.90
2018-12-03T11:47:48.819Z,997.85
2018-12-03T11:48:48.813Z,997.92
2018-12-03T11:49:48.794Z,997.88
2018-12-03T11:50:48.785Z,997.88
2018-12-03T11:51:48.782Z,997.85
2018-12-03T11:52:48.791Z,997.82
2018-12-03T11:53:48.748Z,997.86
2018-12-03T11:54:48.729Z,997.91
2018-12-03T11:55:48.728Z,997.85
2018-12-03T11:56:48.713Z,997.80
2018-12-03T11:57:48.730Z,997.77
2018-12-03T11:58:48.687Z,997.77
2018-12-03T11:59:48.678Z,997.76
2018-12-03T12:00:48.663Z,997.78
2018-12-03T12:01:48.667Z,997.73
2018-12-03T12:02:48.669Z,997.71
2018-12-03T12:03:48.670Z,997.69
2018-12-03T12:04:48.654Z,997.63
2018-12-03T12:05:48.612Z,997.65
2018-12-03T12:06:48.610Z,997.67
2018-12-03T12:07:48.842Z,997.60
2018-12-03T12:08:48.580Z,997.60
2018-12-03T12:09:48.566Z,997.65
2018-12-03T12:10:48.562Z,997.61
2018-12-03T12:11:48.550Z,997.57
2018-12-03T12:12:48.568Z,997.56
2018-12-03T12:13:49.206Z,997.57
2018-12-03T12:15:58.275Z,997.54
2018-12-03T12:16:58.229Z,997.55
2018-12-03T12:17:58.249Z,997.58
2018-12-03T12:18:58.294Z,997.50
2018-12-03T12:19:58.300Z,997.55
2018-12-03T12:20:58.298Z,997.52
2018-12-03T12:21:58.176Z,997.52
2018-12-03T12:22:58.165Z,997.51
2018-12-03T12:23:58.224Z,997.53
2018-12-03T12:24:58.149Z,997.51
2018-12-03T12:25:58.166Z,997.55
2018-12-03T12:26:58.126Z,997.48
2018-12-03T12:27:58.111Z,997.49
2018-12-03T12:28:58.096Z,997.50
2018-12-03T12:29:58.129Z,997.48
2018-12-03T12:30:58.078Z,997.42
2018-12-03T12:31:58.067Z,997.50
2018-12-03T12:32:58.067Z,997.47
2018-12-03T12:33:58.085Z,997.48
2018-12-03T12:34:58.028Z,997.48
2018-12-03T12:35:58.026Z,997.45
2018-12-03T12:36:58.009Z,997.51
2018-12-03T12:37:58.003Z,997.51
2018-12-03T12:38:58.003Z,997.50
2018-12-03T12:39:58.010Z,997.54
2018-12-03T12:40:57.969Z,997.54
2018-12-03T12:41:57.950Z,997.57
2018-12-03T12:42:57.948Z,997.55
2018-12-03T12:43:57.944Z,997.56
2018-12-03T12:45:59.061Z,997.56
2018-12-03T12:46:57.903Z,997.53
2018-12-03T12:47:57.897Z,997.54
2018-12-03T12:48:57.898Z,997.51
2018-12-03T12:49:57.921Z,997.50
2018-12-03T12:51:19.922Z,997.48
2018-12-03T12:51:57.872Z,997.46
2018-12-03T12:52:57.832Z,997.42
2018-12-03T12:53:58.239Z,997.33
2018-12-03T12:54:57.816Z,997.33
2018-12-03T12:55:57.828Z,997.27
2018-12-03T12:57:58.923Z,997.20
2018-12-03T12:58:57.773Z,997.19
2018-12-03T13:00:58.948Z,997.19
2018-12-03T13:02:58.873Z,997.13
2018-12-03T13:03:57.719Z,997.07
2018-12-03T13:04:57.711Z,997.01
2018-12-03T13:05:57.700Z,997.06
2018-12-03T13:06:57.714Z,997.04
2018-12-03T13:07:57.689Z,997.06
2018-12-03T13:08:57.661Z,996.98
2018-12-03T13:09:57.649Z,997.01
2018-12-03T13:10:57.645Z,996.99
2018-12-03T13:11:57.672Z,996.95
2018-12-03T13:12:57.620Z,996.93
2018-12-03T13:13:57.621Z,996.91
2018-12-03T13:14:57.603Z,996.88
2018-12-03T13:16:58.790Z,996.86
2018-12-03T13:17:57.563Z,996.92
2018-12-03T13:18:57.550Z,996.85
2018-12-03T13:19:57.542Z,996.88
2018-12-03T13:20:57.533Z,996.83
2018-12-03T13:21:57.566Z,996.84
2018-12-03T13:22:57.518Z,996.82
2018-12-03T13:23:57.504Z,996.84
2018-12-03T13:24:57.491Z,996.85
2018-12-03T13:25:57.523Z,996.85
2018-12-03T13:26:57.513Z,996.81
2018-12-03T13:27:57.459Z,996.84
2018-12-03T13:28:57.441Z,996.82
2018-12-03T13:29:57.432Z,996.85
2018-12-03T13:30:57.426Z,996.81
2018-12-03T13:31:57.410Z,996.81
2018-12-03T13:32:57.438Z,996.78
2018-12-03T13:33:57.399Z,996.74
2018-12-03T13:34:57.386Z,996.78
2018-12-03T13:35:57.359Z,996.77
2018-12-03T13:36:57.393Z,996.73
2018-12-03T13:38:58.493Z,996.74
2018-12-03T13:39:57.319Z,996.70
2018-12-03T13:40:57.318Z,996.77
2018-12-03T13:41:57.307Z,996.77
2018-12-03T13:42:57.336Z,996.77
2018-12-03T13:43:57.275Z,996.78
2018-12-03T13:44:57.272Z,996.73
2018-12-03T13:45:57.257Z,996.73
2018-12-03T13:46:57.257Z,996.71
2018-12-03T13:47:57.271Z,996.75
2018-12-03T13:48:57.223Z,996.76
2018-12-03T13:49:57.212Z,996.76
2018-12-03T13:51:58.364Z,996.66
2018-12-03T13:52:57.191Z,996.65
2018-12-03T13:53:57.160Z,996.69
2018-12-03T13:54:57.155Z,996.67
2018-12-03T13:55:57.140Z,996.70
2018-12-03T13:56:57.131Z,996.60
2018-12-03T13:57:57.166Z,996.67
2018-12-03T13:58:57.124Z,996.69
2018-12-03T13:59:57.103Z,996.73
2018-12-03T14:01:58.240Z,996.74
2018-12-03T14:02:57.076Z,996.75
2018-12-03T14:03:57.091Z,996.76
2018-12-03T14:04:57.080Z,996.77
2018-12-03T14:05:57.069Z,996.75
2018-12-03T14:06:57.022Z,996.80
2018-12-03T14:07:57.045Z,996.84
2018-12-03T14:08:57.033Z,996.77
2018-12-03T14:09:57.000Z,996.79
2018-12-03T14:10:56.977Z,996.75
2018-12-03T14:11:57.185Z,996.80
2018-12-03T14:12:56.961Z,996.80
2018-12-03T14:13:56.970Z,996.75
2018-12-03T14:14:56.969Z,996.76
2018-12-03T14:15:56.944Z,996.76
2018-12-03T14:16:56.910Z,996.67
2018-12-03T14:17:56.902Z,996.66
2018-12-03T14:18:56.898Z,996.67
2018-12-03T14:19:56.902Z,996.62
2018-12-03T14:20:56.866Z,996.63